sensor_id;sensor_type;location;lat;lon;timestamp;P1;durP1;ratioP1;P2;durP2;ratioP2
6422;SDS011;3244;42.708;23.288;2023-08-30T00:00:18;8.80;;;7.32;;
6422;SDS011;3244;42.708;23.288;2023-08-30T00:02:46;7.57;;;6.88;;
6422;SDS011;3244;42.708;23.288;2023-08-30T00:05:13;7.68;;;6.60;;
6422;SDS011;3244;42.708;23.288;2023-08-30T00:07:39;7.82;;;7.13;;
6422;SDS011;3244;42.708;23.288;2023-08-30T00:10:06;7.90;;;6.53;;
6422;SDS011;3244;42.708;23.288;2023-08-30T00:12:34;7.28;;;6.60;;
6422;SDS011;3244;42.708;23.288;2023-08-30T00:15:00;7.03;;;6.43;;
6422;SDS011;3244;42.708;23.288;2023-08-30T00:17:27;6.47;;;5.97;;
6422;SDS011;3244;42.708;23.288;2023-08-30T00:19:53;7.95;;;6.45;;
6422;SDS011;3244;42.708;23.288;2023-08-30T00:22:20;6.72;;;6.05;;
6422;SDS011;3244;42.708;23.288;2023-08-30T00:24:47;7.15;;;6.10;;
6422;SDS011;3244;42.708;23.288;2023-08-30T00:27:13;6.90;;;6.32;;
6422;SDS011;3244;42.708;23.288;2023-08-30T00:29:41;6.55;;;6.13;;
6422;SDS011;3244;42.708;23.288;2023-08-30T00:32:08;6.85;;;6.40;;
6422;SDS011;3244;42.708;23.288;2023-08-30T00:34:34;6.95;;;6.13;;
6422;SDS011;3244;42.708;23.288;2023-08-30T00:37:01;9.77;;;6.90;;
6422;SDS011;3244;42.708;23.288;2023-08-30T00:39:27;8.93;;;6.07;;
6422;SDS011;3244;42.708;23.288;2023-08-30T00:41:54;7.40;;;6.80;;
6422;SDS011;3244;42.708;23.288;2023-08-30T00:44:20;8.10;;;6.10;;
6422;SDS011;3244;42.708;23.288;2023-08-30T00:46:48;8.82;;;5.57;;
6422;SDS011;3244;42.708;23.288;2023-08-30T00:49:14;6.90;;;6.25;;
6422;SDS011;3244;42.708;23.288;2023-08-30T00:51:41;8.55;;;7.05;;
6422;SDS011;3244;42.708;23.288;2023-08-30T00:54:07;6.70;;;6.10;;
6422;SDS011;3244;42.708;23.288;2023-08-30T00:56:34;6.13;;;5.63;;
6422;SDS011;3244;42.708;23.288;2023-08-30T00:59:01;7.72;;;5.75;;
6422;SDS011;3244;42.708;23.288;2023-08-30T01:01:27;8.00;;;5.95;;
6422;SDS011;3244;42.708;23.288;2023-08-30T01:03:55;6.32;;;5.85;;
6422;SDS011;3244;42.708;23.288;2023-08-30T01:06:21;6.13;;;5.53;;
6422;SDS011;3244;42.708;23.288;2023-08-30T01:08:48;9.55;;;5.97;;
6422;SDS011;3244;42.708;23.288;2023-08-30T01:11:18;6.65;;;5.97;;
6422;SDS011;3244;42.708;23.288;2023-08-30T01:13:50;7.00;;;6.32;;
6422;SDS011;3244;42.708;23.288;2023-08-30T01:16:17;6.35;;;5.30;;
6422;SDS011;3244;42.708;23.288;2023-08-30T01:18:45;5.80;;;5.30;;
6422;SDS011;3244;42.708;23.288;2023-08-30T01:21:14;7.95;;;5.25;;
6422;SDS011;3244;42.708;23.288;2023-08-30T01:23:47;6.47;;;5.22;;
6422;SDS011;3244;42.708;23.288;2023-08-30T01:26:17;7.07;;;5.20;;
6422;SDS011;3244;42.708;23.288;2023-08-30T01:28:47;6.47;;;5.90;;
6422;SDS011;3244;42.708;23.288;2023-08-30T01:31:14;6.05;;;5.45;;
6422;SDS011;3244;42.708;23.288;2023-08-30T01:33:41;5.75;;;5.22;;
6422;SDS011;3244;42.708;23.288;2023-08-30T01:36:08;7.65;;;5.82;;
6422;SDS011;3244;42.708;23.288;2023-08-30T01:38:35;9.23;;;5.60;;
6422;SDS011;3244;42.708;23.288;2023-08-30T01:41:01;6.80;;;6.20;;
6422;SDS011;3244;42.708;23.288;2023-08-30T01:43:28;6.25;;;5.65;;
6422;SDS011;3244;42.708;23.288;2023-08-30T01:45:57;8.30;;;5.72;;
6422;SDS011;3244;42.708;23.288;2023-08-30T01:48:23;6.13;;;5.55;;
6422;SDS011;3244;42.708;23.288;2023-08-30T01:50:50;6.75;;;5.97;;
6422;SDS011;3244;42.708;23.288;2023-08-30T01:53:16;8.63;;;5.97;;
6422;SDS011;3244;42.708;23.288;2023-08-30T01:55:43;5.97;;;5.38;;
6422;SDS011;3244;42.708;23.288;2023-08-30T01:58:09;6.65;;;5.65;;
6422;SDS011;3244;42.708;23.288;2023-08-30T02:00:36;7.20;;;5.43;;
6422;SDS011;3244;42.708;23.288;2023-08-30T02:03:08;6.03;;;5.53;;
6422;SDS011;3244;42.708;23.288;2023-08-30T02:05:35;10.15;;;6.07;;
6422;SDS011;3244;42.708;23.288;2023-08-30T02:08:04;6.25;;;5.78;;
6422;SDS011;3244;42.708;23.288;2023-08-30T02:10:33;6.47;;;5.88;;
6422;SDS011;3244;42.708;23.288;2023-08-30T02:13:01;6.85;;;6.22;;
6422;SDS011;3244;42.708;23.288;2023-08-30T02:15:28;8.57;;;6.13;;
6422;SDS011;3244;42.708;23.288;2023-08-30T02:17:56;7.40;;;6.22;;
6422;SDS011;3244;42.708;23.288;2023-08-30T02:20:24;7.10;;;6.18;;
6422;SDS011;3244;42.708;23.288;2023-08-30T02:22:51;6.53;;;5.88;;
6422;SDS011;3244;42.708;23.288;2023-08-30T02:25:17;6.78;;;5.95;;
6422;SDS011;3244;42.708;23.288;2023-08-30T02:27:49;6.97;;;6.22;;
6422;SDS011;3244;42.708;23.288;2023-08-30T02:30:15;7.93;;;7.20;;
6422;SDS011;3244;42.708;23.288;2023-08-30T02:32:41;7.55;;;6.32;;
6422;SDS011;3244;42.708;23.288;2023-08-30T02:35:08;9.60;;;6.88;;
6422;SDS011;3244;42.708;23.288;2023-08-30T02:37:36;6.75;;;5.97;;
6422;SDS011;3244;42.708;23.288;2023-08-30T02:40:02;7.28;;;6.13;;
6422;SDS011;3244;42.708;23.288;2023-08-30T02:42:29;9.65;;;6.38;;
6422;SDS011;3244;42.708;23.288;2023-08-30T02:44:55;7.78;;;6.38;;
6422;SDS011;3244;42.708;23.288;2023-08-30T02:47:22;6.97;;;6.43;;
6422;SDS011;3244;42.708;23.288;2023-08-30T02:49:48;10.82;;;6.47;;
6422;SDS011;3244;42.708;23.288;2023-08-30T02:52:15;9.25;;;6.68;;
6422;SDS011;3244;42.708;23.288;2023-08-30T02:54:42;16.95;;;6.72;;
6422;SDS011;3244;42.708;23.288;2023-08-30T02:57:09;8.20;;;6.72;;
6422;SDS011;3244;42.708;23.288;2023-08-30T02:59:35;11.35;;;6.95;;
6422;SDS011;3244;42.708;23.288;2023-08-30T03:02:02;7.88;;;6.50;;
6422;SDS011;3244;42.708;23.288;2023-08-30T03:04:28;7.28;;;6.47;;
6422;SDS011;3244;42.708;23.288;2023-08-30T03:06:55;8.73;;;6.25;;
6422;SDS011;3244;42.708;23.288;2023-08-30T03:09:21;7.13;;;6.38;;
6422;SDS011;3244;42.708;23.288;2023-08-30T03:11:49;7.03;;;6.13;;
6422;SDS011;3244;42.708;23.288;2023-08-30T03:14:15;8.07;;;6.35;;
6422;SDS011;3244;42.708;23.288;2023-08-30T03:16:42;7.93;;;5.97;;
6422;SDS011;3244;42.708;23.288;2023-08-30T03:19:10;8.45;;;5.55;;
6422;SDS011;3244;42.708;23.288;2023-08-30T03:21:36;5.95;;;5.45;;
6422;SDS011;3244;42.708;23.288;2023-08-30T03:24:03;6.13;;;5.38;;
6422;SDS011;3244;42.708;23.288;2023-08-30T03:26:29;6.75;;;5.60;;
6422;SDS011;3244;42.708;23.288;2023-08-30T03:28:57;5.93;;;5.40;;
6422;SDS011;3244;42.708;23.288;2023-08-30T03:31:24;10.38;;;5.13;;
6422;SDS011;3244;42.708;23.288;2023-08-30T03:33:50;9.75;;;6.00;;
6422;SDS011;3244;42.708;23.288;2023-08-30T03:36:17;8.40;;;5.63;;
6422;SDS011;3244;42.708;23.288;2023-08-30T03:38:44;5.30;;;4.80;;
6422;SDS011;3244;42.708;23.288;2023-08-30T03:41:11;7.05;;;6.00;;
6422;SDS011;3244;42.708;23.288;2023-08-30T03:43:37;6.40;;;5.03;;
6422;SDS011;3244;42.708;23.288;2023-08-30T03:46:05;10.07;;;5.88;;
6422;SDS011;3244;42.708;23.288;2023-08-30T03:48:32;7.53;;;4.97;;
6422;SDS011;3244;42.708;23.288;2023-08-30T03:50:58;6.18;;;5.15;;
6422;SDS011;3244;42.708;23.288;2023-08-30T03:53:25;10.27;;;6.00;;
6422;SDS011;3244;42.708;23.288;2023-08-30T03:55:51;16.25;;;5.90;;
6422;SDS011;3244;42.708;23.288;2023-08-30T03:58:18;20.63;;;7.05;;
6422;SDS011;3244;42.708;23.288;2023-08-30T04:00:45;14.60;;;10.02;;
6422;SDS011;3244;42.708;23.288;2023-08-30T04:03:14;23.60;;;16.23;;
6422;SDS011;3244;42.708;23.288;2023-08-30T04:05:40;10.57;;;8.90;;
6422;SDS011;3244;42.708;23.288;2023-08-30T04:08:07;10.02;;;6.78;;
6422;SDS011;3244;42.708;23.288;2023-08-30T04:10:34;11.23;;;5.93;;
6422;SDS011;3244;42.708;23.288;2023-08-30T04:13:00;7.72;;;5.63;;
6422;SDS011;3244;42.708;23.288;2023-08-30T04:15:27;6.50;;;5.82;;
6422;SDS011;3244;42.708;23.288;2023-08-30T04:17:53;9.55;;;5.53;;
6422;SDS011;3244;42.708;23.288;2023-08-30T04:20:21;7.63;;;6.28;;
6422;SDS011;3244;42.708;23.288;2023-08-30T04:22:48;6.63;;;5.97;;
6422;SDS011;3244;42.708;23.288;2023-08-30T04:25:14;13.05;;;9.68;;
6422;SDS011;3244;42.708;23.288;2023-08-30T04:27:40;15.60;;;11.80;;
6422;SDS011;3244;42.708;23.288;2023-08-30T04:30:07;8.68;;;5.57;;
6422;SDS011;3244;42.708;23.288;2023-08-30T04:32:34;5.95;;;4.88;;
6422;SDS011;3244;42.708;23.288;2023-08-30T04:35:00;11.73;;;5.93;;
6422;SDS011;3244;42.708;23.288;2023-08-30T04:37:30;9.45;;;5.43;;
6422;SDS011;3244;42.708;23.288;2023-08-30T04:39:57;7.78;;;5.35;;
6422;SDS011;3244;42.708;23.288;2023-08-30T04:42:24;8.48;;;4.05;;
6422;SDS011;3244;42.708;23.288;2023-08-30T04:44:50;7.05;;;4.63;;
6422;SDS011;3244;42.708;23.288;2023-08-30T04:47:19;6.13;;;4.90;;
6422;SDS011;3244;42.708;23.288;2023-08-30T04:49:49;6.53;;;4.45;;
6422;SDS011;3244;42.708;23.288;2023-08-30T04:52:16;6.57;;;4.57;;
6422;SDS011;3244;42.708;23.288;2023-08-30T04:54:43;9.80;;;4.72;;
6422;SDS011;3244;42.708;23.288;2023-08-30T04:57:10;7.43;;;4.05;;
6422;SDS011;3244;42.708;23.288;2023-08-30T04:59:39;4.57;;;4.13;;
6422;SDS011;3244;42.708;23.288;2023-08-30T05:02:05;4.43;;;4.00;;
6422;SDS011;3244;42.708;23.288;2023-08-30T05:04:32;4.32;;;3.83;;
6422;SDS011;3244;42.708;23.288;2023-08-30T05:06:58;5.45;;;3.83;;
6422;SDS011;3244;42.708;23.288;2023-08-30T05:09:25;6.47;;;4.63;;
6422;SDS011;3244;42.708;23.288;2023-08-30T05:11:53;7.15;;;4.18;;
6422;SDS011;3244;42.708;23.288;2023-08-30T05:14:20;5.07;;;3.67;;
6422;SDS011;3244;42.708;23.288;2023-08-30T05:16:46;4.85;;;3.60;;
6422;SDS011;3244;42.708;23.288;2023-08-30T05:19:12;4.50;;;4.05;;
6422;SDS011;3244;42.708;23.288;2023-08-30T05:21:39;6.13;;;3.63;;
6422;SDS011;3244;42.708;23.288;2023-08-30T05:24:06;9.02;;;6.05;;
6422;SDS011;3244;42.708;23.288;2023-08-30T05:26:32;6.45;;;4.10;;
6422;SDS011;3244;42.708;23.288;2023-08-30T05:29:00;10.82;;;4.70;;
6422;SDS011;3244;42.708;23.288;2023-08-30T05:31:26;7.07;;;3.88;;
6422;SDS011;3244;42.708;23.288;2023-08-30T05:33:53;6.43;;;3.85;;
6422;SDS011;3244;42.708;23.288;2023-08-30T05:36:19;7.10;;;4.38;;
6422;SDS011;3244;42.708;23.288;2023-08-30T05:38:46;5.57;;;3.83;;
6422;SDS011;3244;42.708;23.288;2023-08-30T05:41:12;3.92;;;3.55;;
6422;SDS011;3244;42.708;23.288;2023-08-30T05:43:39;6.43;;;3.88;;
6422;SDS011;3244;42.708;23.288;2023-08-30T05:46:07;4.75;;;3.45;;
6422;SDS011;3244;42.708;23.288;2023-08-30T05:48:39;6.57;;;4.05;;
6422;SDS011;3244;42.708;23.288;2023-08-30T05:51:06;4.55;;;3.42;;
6422;SDS011;3244;42.708;23.288;2023-08-30T05:53:32;6.85;;;4.20;;
6422;SDS011;3244;42.708;23.288;2023-08-30T05:55:59;6.43;;;3.33;;
6422;SDS011;3244;42.708;23.288;2023-08-30T05:58:25;6.70;;;4.15;;
6422;SDS011;3244;42.708;23.288;2023-08-30T06:00:52;5.03;;;3.65;;
6422;SDS011;3244;42.708;23.288;2023-08-30T06:03:19;6.70;;;3.58;;
6422;SDS011;3244;42.708;23.288;2023-08-30T06:05:46;3.70;;;3.35;;
6422;SDS011;3244;42.708;23.288;2023-08-30T06:08:13;6.55;;;3.42;;
6422;SDS011;3244;42.708;23.288;2023-08-30T06:10:40;4.05;;;3.65;;
6422;SDS011;3244;42.708;23.288;2023-08-30T06:13:07;4.25;;;3.83;;
6422;SDS011;3244;42.708;23.288;2023-08-30T06:15:34;5.25;;;3.80;;
6422;SDS011;3244;42.708;23.288;2023-08-30T06:18:02;6.72;;;3.75;;
6422;SDS011;3244;42.708;23.288;2023-08-30T06:20:30;7.43;;;4.28;;
6422;SDS011;3244;42.708;23.288;2023-08-30T06:22:57;5.28;;;3.75;;
6422;SDS011;3244;42.708;23.288;2023-08-30T06:25:24;3.60;;;3.30;;
6422;SDS011;3244;42.708;23.288;2023-08-30T06:27:57;4.38;;;3.58;;
6422;SDS011;3244;42.708;23.288;2023-08-30T06:30:24;4.10;;;3.70;;
6422;SDS011;3244;42.708;23.288;2023-08-30T06:32:50;4.18;;;3.47;;
6422;SDS011;3244;42.708;23.288;2023-08-30T06:35:17;4.03;;;3.72;;
6422;SDS011;3244;42.708;23.288;2023-08-30T06:37:44;3.58;;;3.25;;
6422;SDS011;3244;42.708;23.288;2023-08-30T06:40:11;3.85;;;3.30;;
6422;SDS011;3244;42.708;23.288;2023-08-30T06:42:37;4.75;;;3.75;;
6422;SDS011;3244;42.708;23.288;2023-08-30T06:45:04;6.32;;;4.30;;
6422;SDS011;3244;42.708;23.288;2023-08-30T06:47:31;22.15;;;16.02;;
6422;SDS011;3244;42.708;23.288;2023-08-30T06:49:57;8.00;;;7.40;;
6422;SDS011;3244;42.708;23.288;2023-08-30T06:52:24;10.23;;;7.97;;
6422;SDS011;3244;42.708;23.288;2023-08-30T06:54:52;7.65;;;5.82;;
6422;SDS011;3244;42.708;23.288;2023-08-30T06:57:19;7.82;;;5.82;;
6422;SDS011;3244;42.708;23.288;2023-08-30T06:59:46;9.48;;;7.90;;
6422;SDS011;3244;42.708;23.288;2023-08-30T07:02:13;13.57;;;8.65;;
6422;SDS011;3244;42.708;23.288;2023-08-30T07:04:40;14.75;;;9.20;;
6422;SDS011;3244;42.708;23.288;2023-08-30T07:07:06;16.92;;;8.35;;
6422;SDS011;3244;42.708;23.288;2023-08-30T07:09:32;21.73;;;11.93;;
6422;SDS011;3244;42.708;23.288;2023-08-30T07:12:00;18.88;;;10.10;;
6422;SDS011;3244;42.708;23.288;2023-08-30T07:14:27;7.97;;;6.65;;
6422;SDS011;3244;42.708;23.288;2023-08-30T07:16:53;11.70;;;7.85;;
6422;SDS011;3244;42.708;23.288;2023-08-30T07:19:20;12.40;;;6.50;;
6422;SDS011;3244;42.708;23.288;2023-08-30T07:21:46;7.75;;;6.43;;
6422;SDS011;3244;42.708;23.288;2023-08-30T07:24:13;9.90;;;5.60;;
6422;SDS011;3244;42.708;23.288;2023-08-30T07:26:39;9.73;;;5.90;;
6422;SDS011;3244;42.708;23.288;2023-08-30T07:29:08;9.88;;;5.40;;
6422;SDS011;3244;42.708;23.288;2023-08-30T07:31:35;19.00;;;5.13;;
6422;SDS011;3244;42.708;23.288;2023-08-30T07:34:01;5.30;;;4.82;;
6422;SDS011;3244;42.708;23.288;2023-08-30T07:36:28;8.43;;;5.60;;
6422;SDS011;3244;42.708;23.288;2023-08-30T07:38:54;5.00;;;4.45;;
6422;SDS011;3244;42.708;23.288;2023-08-30T07:41:21;6.22;;;4.15;;
6422;SDS011;3244;42.708;23.288;2023-08-30T07:43:47;4.80;;;4.30;;
6422;SDS011;3244;42.708;23.288;2023-08-30T07:46:15;9.02;;;4.85;;
6422;SDS011;3244;42.708;23.288;2023-08-30T07:48:42;6.88;;;4.75;;
6422;SDS011;3244;42.708;23.288;2023-08-30T07:51:08;5.38;;;4.97;;
6422;SDS011;3244;42.708;23.288;2023-08-30T07:53:35;6.97;;;4.88;;
6422;SDS011;3244;42.708;23.288;2023-08-30T07:56:01;5.45;;;4.97;;
6422;SDS011;3244;42.708;23.288;2023-08-30T07:58:28;5.90;;;5.10;;
6422;SDS011;3244;42.708;23.288;2023-08-30T08:00:54;4.03;;;3.72;;
6422;SDS011;3244;42.708;23.288;2023-08-30T08:03:22;5.32;;;4.53;;
6422;SDS011;3244;42.708;23.288;2023-08-30T08:05:48;4.40;;;4.00;;
6422;SDS011;3244;42.708;23.288;2023-08-30T08:08:15;6.15;;;4.15;;
6422;SDS011;3244;42.708;23.288;2023-08-30T08:10:42;4.88;;;4.40;;
6422;SDS011;3244;42.708;23.288;2023-08-30T08:13:08;4.55;;;4.25;;
6422;SDS011;3244;42.708;23.288;2023-08-30T08:15:35;5.57;;;5.13;;
6422;SDS011;3244;42.708;23.288;2023-08-30T08:18:02;4.43;;;4.13;;
6422;SDS011;3244;42.708;23.288;2023-08-30T08:20:29;5.68;;;4.90;;
6422;SDS011;3244;42.708;23.288;2023-08-30T08:22:56;5.47;;;4.00;;
6422;SDS011;3244;42.708;23.288;2023-08-30T08:25:22;5.70;;;4.25;;
6422;SDS011;3244;42.708;23.288;2023-08-30T08:27:49;5.95;;;3.75;;
6422;SDS011;3244;42.708;23.288;2023-08-30T08:30:15;6.72;;;3.60;;
6422;SDS011;3244;42.708;23.288;2023-08-30T08:32:42;5.65;;;4.10;;
6422;SDS011;3244;42.708;23.288;2023-08-30T08:35:09;5.05;;;3.85;;
6422;SDS011;3244;42.708;23.288;2023-08-30T08:37:36;3.60;;;3.30;;
6422;SDS011;3244;42.708;23.288;2023-08-30T08:40:03;5.47;;;3.40;;
6422;SDS011;3244;42.708;23.288;2023-08-30T08:42:33;3.95;;;3.63;;
6422;SDS011;3244;42.708;23.288;2023-08-30T08:45:01;5.65;;;3.42;;
6422;SDS011;3244;42.708;23.288;2023-08-30T08:47:28;4.20;;;3.88;;
6422;SDS011;3244;42.708;23.288;2023-08-30T08:49:55;4.90;;;3.33;;
6422;SDS011;3244;42.708;23.288;2023-08-30T08:52:23;3.78;;;3.00;;
6422;SDS011;3244;42.708;23.288;2023-08-30T08:54:51;3.90;;;3.60;;
6422;SDS011;3244;42.708;23.288;2023-08-30T08:57:18;7.03;;;3.55;;
6422;SDS011;3244;42.708;23.288;2023-08-30T08:59:45;3.45;;;3.22;;
6422;SDS011;3244;42.708;23.288;2023-08-30T09:02:12;3.70;;;3.30;;
6422;SDS011;3244;42.708;23.288;2023-08-30T09:04:39;2.92;;;2.70;;
6422;SDS011;3244;42.708;23.288;2023-08-30T09:07:06;3.88;;;3.10;;
6422;SDS011;3244;42.708;23.288;2023-08-30T09:09:33;3.72;;;3.15;;
6422;SDS011;3244;42.708;23.288;2023-08-30T09:12:01;4.60;;;3.03;;
6422;SDS011;3244;42.708;23.288;2023-08-30T09:14:28;4.63;;;3.63;;
6422;SDS011;3244;42.708;23.288;2023-08-30T09:16:54;3.35;;;3.05;;
6422;SDS011;3244;42.708;23.288;2023-08-30T09:19:21;4.72;;;3.40;;
6422;SDS011;3244;42.708;23.288;2023-08-30T09:21:51;3.75;;;3.45;;
6422;SDS011;3244;42.708;23.288;2023-08-30T09:24:18;4.30;;;4.00;;
6422;SDS011;3244;42.708;23.288;2023-08-30T09:26:46;4.43;;;4.07;;
6422;SDS011;3244;42.708;23.288;2023-08-30T09:29:15;4.07;;;3.42;;
6422;SDS011;3244;42.708;23.288;2023-08-30T09:31:42;3.80;;;3.55;;
6422;SDS011;3244;42.708;23.288;2023-08-30T09:34:09;8.13;;;3.78;;
6422;SDS011;3244;42.708;23.288;2023-08-30T09:36:36;5.43;;;3.45;;
6422;SDS011;3244;42.708;23.288;2023-08-30T09:39:03;4.85;;;4.35;;
6422;SDS011;3244;42.708;23.288;2023-08-30T09:41:30;5.53;;;3.60;;
6422;SDS011;3244;42.708;23.288;2023-08-30T09:43:57;4.82;;;3.58;;
6422;SDS011;3244;42.708;23.288;2023-08-30T09:46:26;3.95;;;3.60;;
6422;SDS011;3244;42.708;23.288;2023-08-30T09:48:53;4.22;;;3.42;;
6422;SDS011;3244;42.708;23.288;2023-08-30T09:51:20;4.18;;;3.42;;
6422;SDS011;3244;42.708;23.288;2023-08-30T09:53:50;5.70;;;3.67;;
6422;SDS011;3244;42.708;23.288;2023-08-30T09:56:20;9.40;;;3.85;;
6422;SDS011;3244;42.708;23.288;2023-08-30T09:58:48;3.80;;;3.20;;
6422;SDS011;3244;42.708;23.288;2023-08-30T10:01:14;4.28;;;3.88;;
6422;SDS011;3244;42.708;23.288;2023-08-30T10:03:43;5.68;;;3.90;;
6422;SDS011;3244;42.708;23.288;2023-08-30T10:06:10;6.93;;;4.80;;
6422;SDS011;3244;42.708;23.288;2023-08-30T10:08:36;4.78;;;4.35;;
6422;SDS011;3244;42.708;23.288;2023-08-30T10:11:04;4.97;;;3.92;;
6422;SDS011;3244;42.708;23.288;2023-08-30T10:13:32;10.25;;;4.45;;
6422;SDS011;3244;42.708;23.288;2023-08-30T10:16:00;6.00;;;4.30;;
6422;SDS011;3244;42.708;23.288;2023-08-30T10:18:29;4.35;;;4.05;;
6422;SDS011;3244;42.708;23.288;2023-08-30T10:20:59;7.55;;;3.80;;
6422;SDS011;3244;42.708;23.288;2023-08-30T10:23:25;5.88;;;3.83;;
6422;SDS011;3244;42.708;23.288;2023-08-30T10:25:53;6.25;;;4.32;;
6422;SDS011;3244;42.708;23.288;2023-08-30T10:28:19;5.32;;;4.75;;
6422;SDS011;3244;42.708;23.288;2023-08-30T10:30:47;7.32;;;3.78;;
6422;SDS011;3244;42.708;23.288;2023-08-30T10:33:14;6.10;;;3.70;;
6422;SDS011;3244;42.708;23.288;2023-08-30T10:35:47;4.30;;;3.90;;
6422;SDS011;3244;42.708;23.288;2023-08-30T10:38:25;4.30;;;3.97;;
6422;SDS011;3244;42.708;23.288;2023-08-30T10:40:53;5.80;;;4.47;;
6422;SDS011;3244;42.708;23.288;2023-08-30T10:43:27;4.93;;;4.50;;
6422;SDS011;3244;42.708;23.288;2023-08-30T10:45:58;5.88;;;4.03;;
6422;SDS011;3244;42.708;23.288;2023-08-30T10:48:33;10.05;;;4.30;;
6422;SDS011;3244;42.708;23.288;2023-08-30T10:50:59;4.95;;;4.55;;
6422;SDS011;3244;42.708;23.288;2023-08-30T10:53:30;6.82;;;4.55;;
6422;SDS011;3244;42.708;23.288;2023-08-30T10:56:03;4.65;;;4.20;;
6422;SDS011;3244;42.708;23.288;2023-08-30T10:58:38;4.70;;;4.30;;
6422;SDS011;3244;42.708;23.288;2023-08-30T11:01:05;7.05;;;5.15;;
6422;SDS011;3244;42.708;23.288;2023-08-30T11:03:32;5.78;;;4.65;;
6422;SDS011;3244;42.708;23.288;2023-08-30T11:05:59;4.80;;;4.40;;
6422;SDS011;3244;42.708;23.288;2023-08-30T11:08:26;6.97;;;4.93;;
6422;SDS011;3244;42.708;23.288;2023-08-30T11:11:01;5.35;;;4.65;;
6422;SDS011;3244;42.708;23.288;2023-08-30T11:13:29;6.07;;;4.65;;
6422;SDS011;3244;42.708;23.288;2023-08-30T11:15:59;4.90;;;4.47;;
6422;SDS011;3244;42.708;23.288;2023-08-30T11:18:25;5.78;;;5.18;;
6422;SDS011;3244;42.708;23.288;2023-08-30T11:20:53;5.30;;;4.90;;
6422;SDS011;3244;42.708;23.288;2023-08-30T11:23:20;5.03;;;4.50;;
6422;SDS011;3244;42.708;23.288;2023-08-30T11:25:49;4.53;;;4.18;;
6422;SDS011;3244;42.708;23.288;2023-08-30T11:28:22;5.07;;;4.47;;
6422;SDS011;3244;42.708;23.288;2023-08-30T11:30:48;4.97;;;4.47;;
6422;SDS011;3244;42.708;23.288;2023-08-30T11:33:16;9.93;;;4.35;;
6422;SDS011;3244;42.708;23.288;2023-08-30T11:35:43;5.95;;;3.78;;
6422;SDS011;3244;42.708;23.288;2023-08-30T11:38:10;4.93;;;4.55;;
6422;SDS011;3244;42.708;23.288;2023-08-30T11:40:37;6.80;;;3.78;;
6422;SDS011;3244;42.708;23.288;2023-08-30T11:43:03;6.05;;;4.38;;
6422;SDS011;3244;42.708;23.288;2023-08-30T11:45:32;5.13;;;3.88;;
6422;SDS011;3244;42.708;23.288;2023-08-30T11:47:59;6.88;;;4.20;;
6422;SDS011;3244;42.708;23.288;2023-08-30T11:50:26;4.70;;;4.10;;
6422;SDS011;3244;42.708;23.288;2023-08-30T11:52:53;4.60;;;4.25;;
6422;SDS011;3244;42.708;23.288;2023-08-30T11:55:19;4.55;;;4.00;;
6422;SDS011;3244;42.708;23.288;2023-08-30T11:57:48;4.95;;;3.75;;
6422;SDS011;3244;42.708;23.288;2023-08-30T12:00:14;5.57;;;4.25;;
6422;SDS011;3244;42.708;23.288;2023-08-30T12:02:42;5.95;;;4.68;;
6422;SDS011;3244;42.708;23.288;2023-08-30T12:05:10;5.30;;;4.90;;
6422;SDS011;3244;42.708;23.288;2023-08-30T12:07:37;4.40;;;4.07;;
6422;SDS011;3244;42.708;23.288;2023-08-30T12:10:04;5.15;;;4.65;;
6422;SDS011;3244;42.708;23.288;2023-08-30T12:12:31;6.10;;;4.80;;
6422;SDS011;3244;42.708;23.288;2023-08-30T12:14:57;5.97;;;4.68;;
6422;SDS011;3244;42.708;23.288;2023-08-30T12:17:24;5.05;;;4.65;;
6422;SDS011;3244;42.708;23.288;2023-08-30T12:19:56;7.13;;;5.07;;
6422;SDS011;3244;42.708;23.288;2023-08-30T12:22:22;4.95;;;4.65;;
6422;SDS011;3244;42.708;23.288;2023-08-30T12:24:49;5.32;;;4.72;;
6422;SDS011;3244;42.708;23.288;2023-08-30T12:27:16;6.13;;;5.20;;
6422;SDS011;3244;42.708;23.288;2023-08-30T12:29:42;5.68;;;5.28;;
6422;SDS011;3244;42.708;23.288;2023-08-30T12:32:08;6.88;;;5.25;;
6422;SDS011;3244;42.708;23.288;2023-08-30T12:34:35;5.78;;;5.28;;
6422;SDS011;3244;42.708;23.288;2023-08-30T12:37:03;5.20;;;4.70;;
6422;SDS011;3244;42.708;23.288;2023-08-30T12:39:30;8.32;;;5.07;;
6422;SDS011;3244;42.708;23.288;2023-08-30T12:41:56;6.50;;;4.40;;
6422;SDS011;3244;42.708;23.288;2023-08-30T12:44:23;5.60;;;5.07;;
6422;SDS011;3244;42.708;23.288;2023-08-30T12:46:49;5.13;;;4.57;;
6422;SDS011;3244;42.708;23.288;2023-08-30T12:49:15;7.50;;;5.03;;
6422;SDS011;3244;42.708;23.288;2023-08-30T12:51:42;5.45;;;4.88;;
6422;SDS011;3244;42.708;23.288;2023-08-30T12:54:10;5.15;;;4.32;;
6422;SDS011;3244;42.708;23.288;2023-08-30T12:56:36;5.22;;;4.82;;
6422;SDS011;3244;42.708;23.288;2023-08-30T12:59:03;5.38;;;5.03;;
6422;SDS011;3244;42.708;23.288;2023-08-30T13:01:29;4.88;;;4.47;;
6422;SDS011;3244;42.708;23.288;2023-08-30T13:03:55;6.60;;;4.70;;
6422;SDS011;3244;42.708;23.288;2023-08-30T13:06:22;5.25;;;4.47;;
6422;SDS011;3244;42.708;23.288;2023-08-30T13:08:48;4.93;;;4.55;;
6422;SDS011;3244;42.708;23.288;2023-08-30T13:11:16;9.95;;;5.15;;
6422;SDS011;3244;42.708;23.288;2023-08-30T13:13:42;5.63;;;4.68;;
6422;SDS011;3244;42.708;23.288;2023-08-30T13:16:09;8.73;;;4.75;;
6422;SDS011;3244;42.708;23.288;2023-08-30T13:18:35;9.07;;;5.28;;
6422;SDS011;3244;42.708;23.288;2023-08-30T13:21:02;5.18;;;4.78;;
6422;SDS011;3244;42.708;23.288;2023-08-30T13:23:29;8.25;;;4.55;;
6422;SDS011;3244;42.708;23.288;2023-08-30T13:25:56;4.65;;;4.35;;
6422;SDS011;3244;42.708;23.288;2023-08-30T13:28:23;4.70;;;4.30;;
6422;SDS011;3244;42.708;23.288;2023-08-30T13:30:50;10.90;;;9.85;;
6422;SDS011;3244;42.708;23.288;2023-08-30T13:33:16;4.85;;;4.45;;
6422;SDS011;3244;42.708;23.288;2023-08-30T13:35:43;4.95;;;4.40;;
6422;SDS011;3244;42.708;23.288;2023-08-30T13:38:09;3.97;;;3.60;;
6422;SDS011;3244;42.708;23.288;2023-08-30T13:40:36;4.57;;;4.18;;
6422;SDS011;3244;42.708;23.288;2023-08-30T13:43:02;7.15;;;4.13;;
6422;SDS011;3244;42.708;23.288;2023-08-30T13:45:30;6.18;;;3.75;;
6422;SDS011;3244;42.708;23.288;2023-08-30T13:47:57;4.50;;;4.20;;
6422;SDS011;3244;42.708;23.288;2023-08-30T13:50:24;5.50;;;4.20;;
6422;SDS011;3244;42.708;23.288;2023-08-30T13:52:55;5.30;;;3.97;;
6422;SDS011;3244;42.708;23.288;2023-08-30T13:55:21;4.72;;;4.32;;
6422;SDS011;3244;42.708;23.288;2023-08-30T13:57:48;7.25;;;4.57;;
6422;SDS011;3244;42.708;23.288;2023-08-30T14:00:15;6.68;;;5.10;;
6422;SDS011;3244;42.708;23.288;2023-08-30T14:02:43;4.88;;;4.47;;
6422;SDS011;3244;42.708;23.288;2023-08-30T14:05:09;6.03;;;4.18;;
6422;SDS011;3244;42.708;23.288;2023-08-30T14:07:36;5.93;;;4.22;;
6422;SDS011;3244;42.708;23.288;2023-08-30T14:10:02;4.80;;;3.83;;
6422;SDS011;3244;42.708;23.288;2023-08-30T14:12:29;4.93;;;3.92;;
6422;SDS011;3244;42.708;23.288;2023-08-30T14:14:55;4.50;;;4.20;;
6422;SDS011;3244;42.708;23.288;2023-08-30T14:17:22;4.20;;;3.80;;
6422;SDS011;3244;42.708;23.288;2023-08-30T14:19:50;4.38;;;4.07;;
6422;SDS011;3244;42.708;23.288;2023-08-30T14:22:16;3.58;;;3.38;;
6422;SDS011;3244;42.708;23.288;2023-08-30T14:24:42;4.22;;;3.53;;
6422;SDS011;3244;42.708;23.288;2023-08-30T14:27:09;5.40;;;3.67;;
6422;SDS011;3244;42.708;23.288;2023-08-30T14:29:35;4.07;;;3.70;;
6422;SDS011;3244;42.708;23.288;2023-08-30T14:32:02;4.28;;;3.30;;
6422;SDS011;3244;42.708;23.288;2023-08-30T14:34:28;3.92;;;3.60;;
6422;SDS011;3244;42.708;23.288;2023-08-30T14:36:57;3.97;;;3.67;;
6422;SDS011;3244;42.708;23.288;2023-08-30T14:39:23;3.17;;;2.90;;
6422;SDS011;3244;42.708;23.288;2023-08-30T14:41:49;4.07;;;3.67;;
6422;SDS011;3244;42.708;23.288;2023-08-30T14:44:16;3.47;;;3.28;;
6422;SDS011;3244;42.708;23.288;2023-08-30T14:46:42;5.32;;;3.17;;
6422;SDS011;3244;42.708;23.288;2023-08-30T14:49:09;11.32;;;4.38;;
6422;SDS011;3244;42.708;23.288;2023-08-30T14:51:35;9.05;;;3.95;;
6422;SDS011;3244;42.708;23.288;2023-08-30T14:54:03;5.07;;;3.55;;
6422;SDS011;3244;42.708;23.288;2023-08-30T14:56:30;6.60;;;3.30;;
6422;SDS011;3244;42.708;23.288;2023-08-30T14:58:56;8.27;;;3.30;;